Time;durP1;ratioP1;P1;durP2;ratioP2;P2;SDS_P1;SDS_P2;PMS_P1;PMS_P2;Temp;Humidity;BMP_temperature;BMP_pressure;BME280_temperature;BME280_humidity;BME280_pressure;Samples;Min_cycle;Max_cycle;Signal;HPM_P1;HPM_P2
2022/04/23 00:04:13;;;;;;;20.00;12.17;;;10.20;99.90;;;;;;21088416;28;20034;-75
2022/04/23 00:14:14;;;;;;;18.90;12.13;;;10.00;99.90;;;;;;21087600;28;20057;-74
2022/04/23 00:24:15;;;;;;;20.57;10.70;;;9.90;99.90;;;;;;21086759;28;20032;-75
2022/04/23 00:34:15;;;;;;;19.83;12.40;;;9.90;99.90;;;;;;21085346;28;20482;-75
2022/04/23 00:44:18;;;;;;;22.15;12.23;;;10.00;99.90;;;;;;20956252;28;20024;-75
2022/04/23 00:54:22;;;;;;;18.45;12.40;;;10.10;99.90;;;;;;20948937;28;20087;-75
2022/04/23 01:04:22;;;;;;;22.95;12.73;;;10.00;99.90;;;;;;20937278;28;20032;-75
2022/04/23 01:14:23;;;;;;;18.17;11.87;;;9.70;99.90;;;;;;20955578;28;20028;-75
2022/04/23 01:24:25;;;;;;;22.13;13.20;;;9.70;99.90;;;;;;20936697;28;20039;-75
2022/04/23 01:34:26;;;;;;;21.98;11.93;;;9.50;99.90;;;;;;20896714;28;20123;-75
2022/04/23 01:44:27;;;;;;;27.83;13.53;;;9.60;99.90;;;;;;20914196;28;20052;-75
2022/04/23 01:54:28;;;;;;;21.63;12.00;;;9.70;99.90;;;;;;20912207;28;20090;-74
2022/04/23 02:04:29;;;;;;;18.43;11.73;;;9.80;99.90;;;;;;20912169;28;20037;-74
2022/04/23 02:14:29;;;;;;;20.80;12.40;;;9.70;99.90;;;;;;20911448;28;20040;-75
2022/04/23 02:24:30;;;;;;;19.27;12.77;;;9.70;99.90;;;;;;20911607;28;20036;-74
2022/04/23 02:34:31;;;;;;;21.53;13.50;;;9.60;99.90;;;;;;20920190;28;20371;-74
2022/04/23 02:44:34;;;;;;;14.40;9.27;;;9.60;99.90;;;;;;20909657;28;20078;-75
2022/04/23 02:54:34;;;;;;;28.33;13.30;;;9.60;99.90;;;;;;20908921;28;20479;-74
2022/04/23 03:04:35;;;;;;;21.47;13.20;;;9.60;99.90;;;;;;20908229;28;20029;-74
2022/04/23 03:14:36;;;;;;;24.23;14.07;;;9.50;99.90;;;;;;20889554;28;20056;-75
2022/04/23 03:24:37;;;;;;;21.67;13.10;;;9.50;99.90;;;;;;20907301;28;20033;-75
2022/04/23 03:34:38;;;;;;;18.13;12.43;;;9.50;99.90;;;;;;20906798;28;20403;-75
2022/04/23 03:44:39;;;;;;;;;;;9.50;99.90;;;;;;20907368;28;20514;-75
2022/04/23 03:54:40;;;;;;;19.67;12.07;;;9.30;99.90;;;;;;20905915;28;19912;-75
2022/04/23 04:04:42;;;;;;;22.40;12.67;;;9.30;99.90;;;;;;20905649;28;20694;-74
2022/04/23 04:14:43;;;;;;;19.77;11.90;;;9.20;99.90;;;;;;20905286;28;20548;-75
2022/04/23 04:24:44;;;;;;;18.73;12.43;;;9.00;99.90;;;;;;20916488;28;20402;-75
2022/04/23 04:34:44;;;;;;;19.90;11.70;;;8.70;99.90;;;;;;20919709;28;20338;-74
2022/04/23 04:44:45;;;;;;;26.33;12.70;;;8.50;99.90;;;;;;20930096;28;20476;-74
2022/04/23 04:54:46;;;;;;;21.67;12.47;;;8.40;99.90;;;;;;20899946;28;20029;-74
2022/04/23 05:04:47;;;;;;;20.47;12.73;;;8.60;99.90;;;;;;20920607;28;20106;-74
2022/04/23 05:14:48;;;;;;;24.90;13.77;;;8.70;99.90;;;;;;20917335;28;20025;-75
2022/04/23 05:24:49;;;;;;;40.60;14.67;;;8.80;99.90;;;;;;20915824;28;20037;-75
2022/04/23 05:34:49;;;;;;;23.33;13.63;;;9.00;99.90;;;;;;20914148;28;20438;-75
2022/04/23 05:44:50;;;;;;;28.17;15.53;;;9.10;99.90;;;;;;20914654;28;20108;-75
2022/04/23 05:54:51;;;;;;;26.10;14.87;;;9.40;99.90;;;;;;20895332;28;20088;-76
2022/04/23 06:04:52;;;;;;;24.17;13.77;;;9.50;99.90;;;;;;20894508;28;20033;-77
2022/04/23 06:14:53;;;;;;;23.20;14.97;;;9.70;99.90;;;;;;20911660;28;20033;-74
2022/04/23 06:24:54;;;;;;;23.73;15.27;;;9.80;99.90;;;;;;20910936;28;20025;-76
2022/04/23 06:34:56;;;;;;;23.93;15.67;;;9.90;99.90;;;;;;20924152;28;20032;-76
2022/04/23 06:44:56;;;;;;;28.27;17.77;;;10.00;99.90;;;;;;20874739;28;20033;-76
2022/04/23 06:54:58;;;;;;;27.87;17.47;;;10.20;99.90;;;;;;20908655;28;20055;-76
2022/04/23 07:04:59;;;;;;;28.63;18.27;;;10.40;99.90;;;;;;20908379;28;20040;-76
2022/04/23 07:15:00;;;;;;;29.13;17.90;;;10.50;99.90;;;;;;20907805;28;20442;-76
2022/04/23 07:25:01;;;;;;;;;;;10.50;99.90;;;;;;20907754;28;20032;-76
2022/04/23 07:45:21;;;;;;;30.50;18.67;;;10.90;99.90;;;;;;20906670;28;20275;-76
2022/04/23 07:55:22;;;;;;;28.03;19.30;;;11.80;99.90;;;;;;20928663;28;20028;-76
2022/04/23 08:05:22;;;;;;;36.90;20.13;;;12.30;99.90;;;;;;21004425;28;20032;-76
2022/04/23 08:15:26;;;;;;;28.87;18.97;;;12.20;99.90;;;;;;20939012;28;20037;-77
2022/04/23 08:25:27;;;;;;;31.75;20.42;;;12.50;99.90;;;;;;20953449;28;20057;-76
2022/04/23 08:35:28;;;;;;;34.93;20.23;;;12.70;99.90;;;;;;20942815;28;20107;-76
2022/04/23 08:45:31;;;;;;;39.80;22.70;;;12.70;99.90;;;;;;20920527;28;20029;-76
2022/04/23 08:55:33;;;;;;;43.92;24.88;;;12.80;99.90;;;;;;20945933;28;20040;-75
2022/04/23 09:05:33;;;;;;;39.77;23.60;;;12.90;99.90;;;;;;20954724;28;20451;-76
2022/04/23 09:25:54;;;;;;;34.20;21.13;;;12.40;99.90;;;;;;20978478;28;20040;-75
2022/04/23 09:36:02;;;;;;;28.73;18.17;;;12.80;99.90;;;;;;20978304;28;20032;-76
2022/04/23 09:46:05;;;;;;;32.33;19.40;;;13.30;99.90;;;;;;21039955;28;20040;-75
2022/04/23 09:56:10;;;;;;;29.30;19.05;;;13.60;99.90;;;;;;20999147;28;20549;-78
2022/04/23 10:06:12;;;;;;;28.55;18.95;;;13.90;99.90;;;;;;20980498;28;20024;-76
2022/04/23 10:16:13;;;;;;;30.98;17.80;;;14.20;99.90;;;;;;20956392;28;20499;-75
2022/04/23 10:26:25;;;;;;;30.15;19.08;;;14.50;99.90;;;;;;21040518;28;20036;-75
2022/04/23 10:36:27;;;;;;;26.45;16.17;;;14.50;99.90;;;;;;20946761;28;20044;-75
2022/04/23 10:46:37;;;;;;;30.03;17.97;;;14.70;99.90;;;;;;20926852;28;20043;-75
2022/04/23 10:56:38;;;;;;;27.95;17.83;;;15.10;99.90;;;;;;20944921;28;20044;-76
2022/04/23 11:17:17;;;;;;;27.63;17.40;;;15.50;99.90;;;;;;20926568;28;20044;-76
2022/04/23 11:27:29;;;;;;;27.38;17.38;;;14.50;99.90;;;;;;20929032;28;20112;-75
2022/04/23 11:37:30;;;;;;;24.70;16.42;;;14.60;99.90;;;;;;20967938;22;20402;-76
2022/04/23 11:47:30;;;;;;;25.87;15.83;;;15.30;99.90;;;;;;20942373;28;20047;-75
2022/04/23 11:57:31;;;;;;;27.93;17.57;;;15.60;99.90;;;;;;20931797;28;20049;-75
2022/04/23 12:07:33;;;;;;;27.33;16.03;;;15.50;99.90;;;;;;20902117;28;20589;-76
2022/04/23 12:17:50;;;;;;;31.38;15.90;;;15.60;99.90;;;;;;20866473;28;20122;-76
2022/04/23 12:28:00;;;;;;;27.73;16.65;;;16.00;99.90;;;;;;20931083;28;20028;-76
2022/04/23 12:48:20;;;;;;;29.77;17.77;;;16.50;99.90;;;;;;20912580;28;20131;-77
2022/04/23 12:58:21;;;;;;;25.60;16.70;;;17.60;99.90;;;;;;20859290;28;20044;-75
2022/04/23 13:18:41;;;;;;;23.08;14.50;;;17.60;99.90;;;;;;20892486;28;20049;-75
2022/04/23 13:28:42;;;;;;;22.67;14.90;;;18.20;99.90;;;;;;20846002;28;20037;-75
2022/04/23 13:38:43;;;;;;;24.03;15.07;;;17.30;99.90;;;;;;20840094;28;20033;-75
2022/04/23 13:48:46;;;;;;;20.63;14.00;;;17.30;99.90;;;;;;20843929;28;20041;-76
2022/04/23 13:58:47;;;;;;;25.65;14.30;;;18.10;99.90;;;;;;20845751;28;20068;-76
2022/04/23 14:19:08;;;;;;;22.98;14.45;;;18.30;99.90;;;;;;20871750;28;20849;-78
2022/04/23 14:29:08;;;;;;;21.20;13.17;;;17.40;99.90;;;;;;20881562;28;20033;-78
2022/04/23 14:39:09;;;;;;;21.93;13.57;;;17.20;99.90;;;;;;20883765;28;20048;-78
2022/04/23 14:49:10;;;;;;;22.43;15.13;;;17.50;99.90;;;;;;20897530;28;20021;-78
2022/04/23 14:59:12;;;;;;;21.20;14.13;;;17.00;99.90;;;;;;20841472;28;20024;-77
2022/04/23 15:09:13;;;;;;;;;;;16.80;99.90;;;;;;20869404;28;20036;-77
2022/04/23 15:19:14;;;;;;;24.13;14.75;;;16.60;99.90;;;;;;20914630;28;19956;-77
2022/04/23 15:29:15;;;;;;;26.25;16.10;;;16.40;99.90;;;;;;20893823;28;20039;-76
2022/04/23 15:39:16;;;;;;;23.63;15.67;;;15.40;99.90;;;;;;20906281;28;20404;-77
2022/04/23 15:49:17;;;;;;;26.67;16.47;;;15.70;99.90;;;;;;20906535;28;20037;-77
2022/04/23 15:59:18;;;;;;;27.17;15.97;;;15.60;99.90;;;;;;20905817;28;20037;-76
2022/04/23 16:09:18;;;;;;;25.50;15.47;;;15.40;99.90;;;;;;20888127;28;20075;-77
2022/04/23 16:19:19;;;;;;;23.73;15.00;;;15.20;99.90;;;;;;20897985;28;20063;-77
2022/04/23 16:29:20;;;;;;;23.57;14.33;;;15.30;99.90;;;;;;20903138;28;20029;-76
2022/04/23 16:49:40;;;;;;;31.23;15.38;;;14.60;99.90;;;;;;20903866;28;20067;-77
2022/04/23 16:59:41;;;;;;;32.00;16.13;;;14.10;99.90;;;;;;20918424;28;20044;-76
2022/04/23 17:09:42;;;;;;;23.20;14.60;;;14.00;99.90;;;;;;20901525;28;20032;-76
2022/04/23 17:19:42;;;;;;;24.50;14.27;;;14.10;99.90;;;;;;20929717;28;20025;-77
2022/04/23 17:29:43;;;;;;;23.67;14.67;;;14.30;99.90;;;;;;20917936;28;20029;-76
2022/04/23 17:39:44;;;;;;;23.17;14.53;;;13.80;99.90;;;;;;21045490;22;20072;-73
2022/04/23 17:49:45;;;;;;;26.87;14.80;;;13.50;99.90;;;;;;21079873;28;20032;-73
2022/04/23 18:10:49;;;;;;;22.67;14.25;;;13.00;99.90;;;;;;21028610;28;20504;-74
2022/04/23 18:20:35;;;;;;;25.40;13.90;;;12.90;99.90;;;;;;21056979;28;20047;-74
2022/04/23 18:30:36;;;;;;;26.77;13.67;;;12.60;99.90;;;;;;21056787;28;20039;-74
2022/04/23 18:40:37;;;;;;;21.57;13.37;;;12.40;99.90;;;;;;21055700;28;20715;-74
2022/04/23 18:50:38;;;;;;;22.60;12.77;;;12.40;99.90;;;;;;21072577;28;20024;-74
2022/04/23 19:00:39;;;;;;;20.40;13.80;;;12.20;99.90;;;;;;21055924;28;20028;-74
2022/04/23 19:10:40;;;;;;;20.63;12.67;;;12.20;99.90;;;;;;21050079;28;20119;-73
2022/04/23 19:31:00;;;;;;;22.08;13.48;;;12.40;99.90;;;;;;21073409;28;20435;-74
2022/04/23 19:41:01;;;;;;;21.53;13.90;;;12.60;99.90;;;;;;21054764;28;20116;-74
2022/04/23 19:51:02;;;;;;;24.67;14.57;;;12.60;99.90;;;;;;21077649;28;20052;-74
2022/04/23 20:01:03;;;;;;;25.33;15.43;;;12.40;99.90;;;;;;21070760;28;20036;-74
2022/04/23 20:11:04;;;;;;;24.20;15.40;;;12.50;99.90;;;;;;21088251;28;20119;-73
2022/04/23 20:21:05;;;;;;;;;;;12.50;99.90;;;;;;21069461;28;20029;-73
2022/04/23 20:31:06;;;;;;;31.40;15.35;;;12.60;99.90;;;;;;21086846;28;19908;-73
2022/04/23 20:41:07;;;;;;;30.67;16.43;;;12.60;99.90;;;;;;21085862;28;20122;-73
2022/04/23 20:51:09;;;;;;;27.93;16.47;;;12.60;99.90;;;;;;21085693;28;20064;-72
2022/04/23 21:01:11;;;;;;;28.88;17.23;;;12.50;99.90;;;;;;21066108;28;20111;-73
2022/04/23 21:11:12;;;;;;;;;;;12.50;99.90;;;;;;21065068;28;20127;-73
2022/04/23 21:21:13;;;;;;;29.88;16.95;;;12.40;99.90;;;;;;21082452;28;19962;-73
2022/04/23 21:31:14;;;;;;;28.40;15.40;;;12.40;99.90;;;;;;21082020;28;20028;-73
2022/04/23 21:51:34;;;;;;;29.63;16.35;;;12.30;99.90;;;;;;21080583;28;20032;-73
2022/04/23 22:01:35;;;;;;;27.35;15.30;;;12.20;99.90;;;;;;21079676;28;20032;-73
2022/04/23 22:11:36;;;;;;;30.20;16.33;;;12.10;99.90;;;;;;21077832;28;20401;-73
2022/04/23 22:21:39;;;;;;;29.90;15.70;;;12.00;99.90;;;;;;21043049;28;20401;-73
2022/04/23 22:31:40;;;;;;;29.90;16.88;;;11.60;99.90;;;;;;21077374;28;20024;-73
2022/04/23 22:41:41;;;;;;;26.20;15.27;;;11.20;99.90;;;;;;21076799;28;20029;-73
2022/04/23 22:51:42;;;;;;;30.27;17.10;;;11.40;99.90;;;;;;21059017;28;20031;-73
2022/04/23 23:01:43;;;;;;;31.17;17.13;;;11.50;99.90;;;;;;21075347;28;20032;-74
2022/04/23 23:11:43;;;;;;;30.73;17.10;;;10.90;99.90;;;;;;21042858;28;20039;-74
2022/04/23 23:21:44;;;;;;;34.00;16.40;;;10.80;99.90;;;;;;21030880;28;20059;-75
2022/04/23 23:31:45;;;;;;;27.77;16.93;;;10.80;99.90;;;;;;21030271;28;20024;-74
2022/04/23 23:41:46;;;;;;;32.47;16.77;;;11.10;99.90;;;;;;21006232;23;20064;-78
2022/04/23 23:51:47;;;;;;;29.40;16.87;;;11.20;99.90;;;;;;20934506;28;20020;-80
